Monticello, IA

2:38 PM CDT on March 30, 2017 (GMT -0500)
Monticello Regional

Weather History for KMXO - December, 2012

Change the Weather History Date:

Thursday, December 20, 2012

  Actual Average Record
Temperature  
Mean Temperature 26 °F -  
Max Temperature 35 °F 27 °F 48 °F (2015)
Min Temperature 17 °F 13 °F -9 °F (2000)
Degree Days  
Heating Degree Days 39    
Moisture  
Dew Point 25 °F    
Average Humidity 82    
Maximum Humidity 87    
Minimum Humidity 74    
Precipitation  
Precipitation 0.00 in - - ()
Sea Level Pressure  
Sea Level Pressure 29.54 in    
Wind  
Wind Speed 18 mph (NNW)    
Max Wind Speed 29 mph    
Max Gust Speed 38 mph    
Visibility 2 miles    
Events Snow    
Averages and records for this station are not official NWS values.
T = Trace of Precipitation, MM = Missing Value Source: NWS Daily Summary

Daily Weather History Graph

Daily Weather History Graph

Search for Another Location

Airport or City:

Trip Planner

Search our weather history database for the weather conditions in past years. The results will help you decide how hot, cold, wet, or windy it might be!

Date:

Astronomy

Dec. 20, 2012 Rise Set
Actual Time 7:29 AM CST 4:35 PM CST
Civil Twilight 6:57 AM CST 5:07 PM CST
Nautical Twilight 6:22 AM CST 5:42 PM CST
Astronomical Twilight 5:48 AM CST 6:16 PM CST
Moon 11:58 AM CST (12/20) 12:11 AM CST (12/20)
Length of Visible Light 10h 09m
Length of Day
9h 05m
First Quarter, 55% of the Moon is Illuminated
Dec 20
First Quarter
Dec 28
Full
Jan 4
Last Quarter
Jan 11
New
Jan 18
First Quarter

Hourly Weather History & Observations

Time (CST) Temp. Windchill Dew Point Humidity Pressure Visibility Wind Dir Wind Speed Gust Speed Precip Events Conditions
2:55 AM 35.6 °F 28.0 °F 30.2 °F 81% 29.59 in 7.0 mi NE 10.4 mph 16.1 mph N/A   Unknown
3:15 AM 35.6 °F 26.2 °F 30.2 °F 81% 29.53 in 1.8 mi NE 15.0 mph 21.9 mph N/A Snow Light Snow
3:35 AM 33.8 °F 25.3 °F 30.2 °F 87% 29.52 in 1.0 mi NE 11.5 mph 20.7 mph N/A Snow Snow
3:55 AM 33.8 °F 25.3 °F 30.2 °F 87% 29.52 in 3.0 mi NE 11.5 mph 19.6 mph N/A Snow Light Snow
4:15 AM 33.8 °F 24.3 °F 30.2 °F 87% 29.49 in 1.5 mi NE 13.8 mph 21.9 mph N/A Snow Light Snow
4:35 AM 33.8 °F 25.3 °F 30.2 °F 87% 29.48 in 2.5 mi NNE 11.5 mph 17.3 mph N/A Snow Light Snow
4:55 AM 33.8 °F 23.5 °F 30.2 °F 87% 29.47 in 4.0 mi NNE 16.1 mph 21.9 mph N/A Snow Light Snow
5:15 AM 33.8 °F 23.5 °F 28.4 °F 81% 29.44 in 5.0 mi North 16.1 mph 20.7 mph N/A   Overcast
5:35 AM 33.8 °F 24.3 °F 28.4 °F 81% 29.45 in 3.0 mi North 13.8 mph 21.9 mph N/A   Haze
5:55 AM 33.8 °F 24.3 °F 28.4 °F 81% 29.45 in 1.5 mi NNE 13.8 mph 23.0 mph N/A Snow Light Snow
6:15 AM 33.8 °F 24.3 °F 28.4 °F 81% 29.44 in 1.5 mi North 13.8 mph 23.0 mph N/A Snow Light Snow
6:35 AM 33.8 °F 23.5 °F 28.4 °F 81% 29.43 in 1.2 mi North 16.1 mph 25.3 mph N/A Snow Light Snow
6:55 AM 33.8 °F 24.3 °F 28.4 °F 81% 29.42 in 1.2 mi North 13.8 mph 26.5 mph N/A Snow Light Snow
7:15 AM 33.8 °F 22.5 °F 28.4 °F 81% 29.42 in 0.8 mi North 19.6 mph 25.3 mph N/A Snow Snow
7:35 AM 33.8 °F 23.9 °F 28.4 °F 81% 29.42 in 1.0 mi North 15.0 mph 24.2 mph N/A Snow Light Snow
7:55 AM 33.8 °F 23.9 °F 28.4 °F 81% 29.41 in 0.5 mi North 15.0 mph 23.0 mph N/A Snow Light Snow
8:15 AM 32.0 °F 21.6 °F 28.4 °F 87% 29.40 in 0.5 mi North 15.0 mph 23.0 mph N/A Snow Light Snow
8:35 AM 32.0 °F 21.6 °F 28.4 °F 87% 29.39 in 0.5 mi North 15.0 mph 25.3 mph N/A Snow Light Snow
8:55 AM 32.0 °F 20.1 °F 28.4 °F 87% 29.38 in - North 19.6 mph 26.5 mph N/A   Unknown
9:15 AM 33.8 °F 23.9 °F 28.4 °F 81% 29.39 in 0.8 mi North 15.0 mph 25.3 mph N/A Snow Light Snow
9:35 AM 33.8 °F 22.5 °F 28.4 °F 81% 29.37 in 1.0 mi North 19.6 mph 26.5 mph N/A Snow Light Snow
9:55 AM 33.8 °F 22.2 °F - N/A% 29.37 in - North 20.7 mph 28.8 mph N/A   Unknown
10:15 AM 33.8 °F 21.3 °F 28.4 °F 81% 29.37 in - North 24.2 mph 29.9 mph N/A Snow Light Snow
10:35 AM 33.8 °F 21.0 °F 28.4 °F 81% 29.38 in 0.5 mi North 25.3 mph 33.4 mph N/A Snow Light Snow
10:55 AM 33.8 °F 21.0 °F 28.4 °F 81% 29.38 in 0.5 mi NNW 25.3 mph 32.2 mph N/A Snow Light Snow
11:15 AM 33.8 °F 21.3 °F 28.4 °F 81% 29.38 in 0.2 mi NNW 24.2 mph 34.5 mph N/A Snow Snow
11:35 AM 33.8 °F 21.0 °F 28.4 °F 81% 29.38 in 0.2 mi NNW 25.3 mph 35.7 mph N/A Snow Snow
11:55 AM 32.0 °F 18.4 °F 28.4 °F 87% 29.38 in 0.2 mi NNW 26.5 mph 35.7 mph N/A Snow Snow
12:15 PM 32.0 °F 18.6 °F 28.4 °F 87% 29.37 in 0.5 mi NNW 25.3 mph 35.7 mph N/A Snow Light Snow
12:35 PM 32.0 °F 18.4 °F 28.4 °F 87% 29.37 in 0.5 mi NNW 26.5 mph 33.4 mph N/A Snow Light Snow
12:55 PM 32.0 °F 18.6 °F 28.4 °F 87% 29.38 in 0.5 mi NNW 25.3 mph 35.7 mph N/A Snow Snow
1:35 PM 30.2 °F 15.7 °F 26.6 °F 86% 29.40 in 0.5 mi NNW 27.6 mph 34.5 mph N/A Snow Light Snow
1:55 PM 30.2 °F 15.4 °F 26.6 °F 86% 29.41 in 0.5 mi NNW 28.8 mph 34.5 mph N/A Snow Light Snow
2:15 PM 30.2 °F 16.5 °F 26.6 °F 86% 29.43 in 0.5 mi NNW 24.2 mph 36.8 mph N/A Snow Light Snow
2:35 PM 30.2 °F 16.2 °F 26.6 °F 86% 29.45 in 0.5 mi NNW 25.3 mph 38.0 mph N/A Snow Light Snow
2:55 PM 30.2 °F 16.8 °F 26.6 °F 86% 29.47 in 0.8 mi NNW 23.0 mph 32.2 mph N/A Snow Light Snow
3:15 PM 30.2 °F 16.8 °F 24.8 °F 80% 29.50 in 0.8 mi NW 23.0 mph 33.4 mph N/A Snow Light Snow
3:35 PM 30.2 °F 16.2 °F 24.8 °F 80% 29.52 in 0.8 mi NNW 25.3 mph 34.5 mph N/A Snow Light Snow
3:55 PM 28.4 °F 14.1 °F 24.8 °F 86% 29.54 in 0.8 mi NW 24.2 mph 33.4 mph N/A Snow Light Snow
4:15 PM 28.4 °F 13.5 °F 24.8 °F 86% 29.55 in 0.8 mi NW 26.5 mph 33.4 mph N/A Snow Light Snow
4:35 PM 28.4 °F 13.8 °F 24.8 °F 86% 29.57 in 0.8 mi NW 25.3 mph 33.4 mph N/A Snow Light Snow
4:55 PM 28.4 °F 14.4 °F 24.8 °F 86% 29.59 in 1.5 mi NW 23.0 mph 32.2 mph N/A Snow Light Snow
5:15 PM 28.4 °F 13.5 °F 23.0 °F 80% 29.60 in 1.5 mi NW 26.5 mph 36.8 mph N/A Snow Light Snow
5:35 PM 28.4 °F 14.1 °F 23.0 °F 80% 29.62 in 1.5 mi NW 24.2 mph 34.5 mph N/A Snow Light Snow
5:55 PM 26.6 °F 11.4 °F 23.0 °F 86% 29.63 in 1.8 mi NW 25.3 mph 33.4 mph N/A Snow Light Snow
6:15 PM 26.6 °F 12.4 °F 21.2 °F 80% 29.65 in 3.0 mi NW 21.9 mph 32.2 mph N/A Snow Light Snow
6:35 PM 26.6 °F 12.0 °F 21.2 °F 80% 29.66 in 3.0 mi NW 23.0 mph 31.1 mph N/A   Haze
6:55 PM 26.6 °F 12.0 °F 21.2 °F 80% 29.67 in 3.0 mi NW 23.0 mph 32.2 mph N/A   Haze
7:15 PM 26.6 °F 12.7 °F 21.2 °F 80% 29.69 in 5.0 mi NW 20.7 mph 28.8 mph N/A   Haze
7:35 PM 26.6 °F 12.7 °F 21.2 °F 80% 29.70 in 4.0 mi NW 20.7 mph 31.1 mph N/A   Haze
7:55 PM 26.6 °F 12.7 °F 19.4 °F 74% 29.70 in 5.0 mi NW 20.7 mph 31.1 mph N/A   Haze
8:15 PM 26.6 °F 12.7 °F 19.4 °F 74% 29.72 in 5.0 mi NW 20.7 mph 26.5 mph N/A   Haze
8:35 PM 24.8 °F 9.0 °F 19.4 °F 80% 29.73 in 3.0 mi NW 25.3 mph 32.2 mph N/A   Haze
8:55 PM 24.8 °F 9.6 °F 17.6 °F 74% 29.74 in 3.0 mi NW 23.0 mph 33.4 mph N/A   Haze
9:15 PM 23.0 °F 7.2 °F 17.6 °F 80% 29.75 in 3.0 mi NW 23.0 mph 35.7 mph N/A Snow Light Snow
9:35 PM 23.0 °F 6.3 °F 17.6 °F 80% 29.76 in 4.0 mi NW 26.5 mph 33.4 mph N/A   Haze
9:55 PM 21.2 °F 5.2 °F 17.6 °F 86% 29.78 in 4.0 mi NW 21.9 mph 28.8 mph N/A   Haze
10:15 PM 21.2 °F 4.9 °F 15.8 °F 80% 29.80 in 2.5 mi NW 23.0 mph 34.5 mph N/A   Haze
10:35 PM 21.2 °F 6.4 °F 15.8 °F 80% 29.81 in 3.0 mi NW 18.4 mph 27.6 mph N/A   Haze
10:55 PM 19.4 °F 2.5 °F 15.8 °F 86% 29.82 in 2.5 mi WNW 23.0 mph 35.7 mph N/A   Haze
11:15 PM 19.4 °F 2.5 °F 14.0 °F 80% 29.83 in 5.0 mi WNW 23.0 mph 28.8 mph N/A   Haze
11:35 PM 17.6 °F -0.3 °F 12.2 °F 79% 29.84 in 2.5 mi NW 24.2 mph 34.5 mph N/A   Haze
11:55 PM 17.6 °F -0.6 °F 12.2 °F 79% 29.85 in 4.0 mi NW 25.3 mph 34.5 mph N/A   Haze